Time;durP1;ratioP1;P1;durP2;ratioP2;P2;SDS_P1;SDS_P2;PMS_P1;PMS_P2;Temp;Humidity;BMP_temperature;BMP_pressure;BME280_temperature;BME280_humidity;BME280_pressure;Samples;Min_cycle;Max_cycle;Signal;HPM_P1;HPM_P2
2023/06/11 00:01:16;;;;;;;6.97;5.95;;;20.80;99.90;;;;;;7347339;32;20125;-55
2023/06/11 00:05:18;;;;;;;6.62;5.28;;;20.80;99.90;;;;;;7349581;32;20489;-55
2023/06/11 00:09:22;;;;;;;7.55;6.03;;;20.80;99.90;;;;;;7347794;32;20115;-57
2023/06/11 00:13:23;;;;;;;9.68;5.60;;;20.80;99.90;;;;;;7341154;32;20099;-56
2023/06/11 00:17:25;;;;;;;6.43;5.68;;;20.70;99.90;;;;;;7344789;32;20160;-55
2023/06/11 00:21:28;;;;;;;8.25;5.93;;;20.70;99.90;;;;;;7347271;32;20107;-56
2023/06/11 00:25:32;;;;;;;7.97;5.93;;;20.70;99.90;;;;;;7348675;32;20488;-56
2023/06/11 00:29:34;;;;;;;6.82;5.82;;;20.70;99.90;;;;;;7348497;32;20306;-55
2023/06/11 00:33:35;;;;;;;7.95;5.68;;;20.70;99.90;;;;;;7347165;32;20108;-56
2023/06/11 00:37:37;;;;;;;8.05;5.95;;;20.60;99.90;;;;;;7348149;32;20126;-55
2023/06/11 00:41:45;;;;;;;7.10;5.82;;;20.40;99.90;;;;;;7348677;32;20136;-56
2023/06/11 00:45:50;;;;;;;6.00;5.40;;;20.40;99.90;;;;;;7348219;32;20252;-56
2023/06/11 00:49:53;;;;;;;6.85;5.80;;;20.30;99.90;;;;;;7349069;32;20201;-55
2023/06/11 00:53:55;;;;;;;8.90;6.07;;;20.30;99.90;;;;;;7345089;32;20521;-55
2023/06/11 00:57:57;;;;;;;7.90;5.93;;;20.30;99.90;;;;;;7350845;32;20434;-57
2023/06/11 01:02:21;;;;;;;6.40;5.50;;;20.30;99.90;;;;;;7347288;32;20133;-57
2023/06/11 01:06:28;;;;;;;7.65;6.10;;;20.30;99.90;;;;;;7352747;32;20210;-56
2023/06/11 01:10:29;;;;;;;10.32;6.35;;;20.20;99.90;;;;;;7351437;32;20176;-57
2023/06/11 01:14:32;;;;;;;7.25;5.75;;;20.10;99.90;;;;;;7350450;32;20099;-56
2023/06/11 01:18:53;;;;;;;8.25;5.25;;;20.00;99.90;;;;;;7347680;32;20501;-56
2023/06/11 01:23:14;;;;;;;7.47;6.60;;;19.90;99.90;;;;;;7348238;32;20588;-55
2023/06/11 01:27:33;;;;;;;7.43;5.90;;;19.80;99.90;;;;;;7350061;32;20337;-55
2023/06/11 01:31:40;;;;;;;7.90;6.22;;;19.60;99.90;;;;;;7349149;32;20163;-57
2023/06/11 01:35:43;;;;;;;7.35;6.25;;;19.50;99.90;;;;;;7347795;32;20143;-56
2023/06/11 01:39:45;;;;;;;7.30;6.47;;;19.50;99.90;;;;;;7349958;32;20277;-56
2023/06/11 01:43:47;;;;;;;7.32;6.32;;;19.40;99.90;;;;;;7344522;32;20241;-55
2023/06/11 01:47:49;;;;;;;6.85;6.07;;;19.50;99.90;;;;;;7348692;32;20226;-56
2023/06/11 01:51:51;;;;;;;7.43;5.82;;;19.60;99.90;;;;;;7340588;32;20150;-56
2023/06/11 01:55:56;;;;;;;8.40;6.28;;;19.50;99.90;;;;;;7349156;32;20312;-56
2023/06/11 01:59:58;;;;;;;7.25;6.50;;;19.60;99.90;;;;;;7343922;32;20125;-55
2023/06/11 02:04:00;;;;;;;6.82;5.50;;;19.70;99.90;;;;;;7347331;32;20103;-57
2023/06/11 02:08:02;;;;;;;8.05;5.82;;;19.60;99.90;;;;;;7345685;32;20134;-56
2023/06/11 02:12:05;;;;;;;6.47;5.30;;;19.60;99.90;;;;;;7349294;32;20122;-56
2023/06/11 02:16:07;;;;;;;7.57;5.53;;;19.50;99.90;;;;;;7348589;32;20103;-57
2023/06/11 02:20:09;;;;;;;6.85;5.93;;;19.60;99.90;;;;;;7354606;32;20152;-56
2023/06/11 02:24:11;;;;;;;6.37;5.72;;;19.50;99.90;;;;;;7342113;32;20119;-56
2023/06/11 02:28:15;;;;;;;6.40;5.55;;;19.60;99.90;;;;;;7342730;32;20386;-56
2023/06/11 02:32:17;;;;;;;6.57;5.95;;;19.60;99.90;;;;;;7348951;32;20486;-57
2023/06/11 02:36:19;;;;;;;7.43;5.35;;;19.50;99.90;;;;;;7350798;32;20544;-57
2023/06/11 02:40:20;;;;;;;11.35;5.75;;;19.50;99.90;;;;;;7351748;32;20115;-56
2023/06/11 02:44:23;;;;;;;8.73;5.25;;;19.50;99.90;;;;;;7352151;32;20202;-56
2023/06/11 02:48:24;;;;;;;6.45;5.80;;;19.40;99.90;;;;;;7348837;32;20115;-56
2023/06/11 02:52:26;;;;;;;10.30;5.62;;;19.40;99.90;;;;;;7350385;32;20203;-56
2023/06/11 02:56:28;;;;;;;10.23;5.82;;;19.30;99.90;;;;;;7352942;32;20506;-56
2023/06/11 03:00:30;;;;;;;6.25;5.40;;;19.20;99.90;;;;;;7351779;32;20187;-57
2023/06/11 03:04:31;;;;;;;6.30;5.70;;;19.20;99.90;;;;;;7340672;32;20281;-55
2023/06/11 03:08:33;;;;;;;6.87;5.95;;;19.20;99.90;;;;;;7344477;32;20285;-56
2023/06/11 03:12:35;;;;;;;7.32;5.87;;;19.10;99.90;;;;;;7352366;32;20557;-55
2023/06/11 03:16:36;;;;;;;6.95;5.82;;;19.00;99.90;;;;;;7346481;32;20242;-55
2023/06/11 03:20:38;;;;;;;7.82;5.78;;;18.90;99.90;;;;;;7349669;32;20126;-56
2023/06/11 03:24:40;;;;;;;6.12;5.37;;;18.90;99.90;;;;;;7341836;32;20202;-55
2023/06/11 03:28:42;;;;;;;7.30;5.97;;;18.80;99.90;;;;;;7340674;32;20103;-55
2023/06/11 03:32:44;;;;;;;7.03;6.28;;;18.80;99.90;;;;;;7345928;32;20125;-54
2023/06/11 03:36:45;;;;;;;6.90;6.20;;;18.80;99.90;;;;;;7351691;32;20174;-55
2023/06/11 03:40:47;;;;;;;8.82;6.57;;;18.70;99.90;;;;;;7352072;32;20611;-55
2023/06/11 03:44:50;;;;;;;6.82;5.70;;;18.70;99.90;;;;;;7351979;32;20104;-56
2023/06/11 03:48:51;;;;;;;8.23;5.85;;;18.60;99.90;;;;;;7351125;32;20136;-56
2023/06/11 03:52:53;;;;;;;10.55;6.28;;;18.60;99.90;;;;;;7350042;32;20217;-56
2023/06/11 03:56:55;;;;;;;7.50;6.10;;;18.60;99.90;;;;;;7348761;32;20126;-56
2023/06/11 04:00:57;;;;;;;7.82;6.75;;;18.50;99.90;;;;;;7347775;32;20246;-56
2023/06/11 04:04:58;;;;;;;6.85;6.07;;;18.60;99.90;;;;;;7349610;32;20119;-56
2023/06/11 04:09:00;;;;;;;7.85;6.15;;;18.60;99.90;;;;;;7352246;32;20186;-56
2023/06/11 04:13:02;;;;;;;7.30;6.28;;;18.70;99.90;;;;;;7346696;32;20168;-57
2023/06/11 04:17:04;;;;;;;8.65;6.25;;;18.80;99.90;;;;;;7346110;32;20201;-56
2023/06/11 04:21:06;;;;;;;7.25;6.10;;;19.10;99.90;;;;;;7349017;32;20115;-56
2023/06/11 04:25:08;;;;;;;7.32;6.32;;;19.20;99.90;;;;;;7354406;32;20582;-55
2023/06/11 04:29:10;;;;;;;8.55;5.95;;;19.30;99.90;;;;;;7346964;32;20222;-56
2023/06/11 04:33:12;;;;;;;9.55;6.05;;;19.40;99.90;;;;;;7350412;32;20110;-56
2023/06/11 04:37:16;;;;;;;7.00;5.80;;;19.70;99.90;;;;;;7351712;32;20486;-56
2023/06/11 04:41:23;;;;;;;10.65;6.25;;;19.90;99.90;;;;;;7346064;32;20504;-56
2023/06/11 04:45:26;;;;;;;6.07;5.47;;;20.10;99.90;;;;;;7348151;32;20634;-56
2023/06/11 04:49:28;;;;;;;6.78;6.18;;;20.30;99.90;;;;;;7350110;32;20114;-56
2023/06/11 04:53:31;;;;;;;6.72;5.40;;;20.60;99.90;;;;;;7352185;32;20135;-56
2023/06/11 04:57:33;;;;;;;9.20;5.90;;;20.90;99.90;;;;;;7353047;32;20570;-56
2023/06/11 05:01:37;;;;;;;5.72;5.10;;;21.20;99.90;;;;;;7352188;32;20583;-56
2023/06/11 05:05:39;;;;;;;7.68;5.78;;;21.60;99.90;;;;;;7351138;32;20130;-56
2023/06/11 05:09:42;;;;;;;6.40;5.80;;;22.10;99.90;;;;;;7350940;32;20326;-56
2023/06/11 05:13:46;;;;;;;6.60;5.20;;;22.50;99.90;;;;;;7351787;32;20127;-56
2023/06/11 05:17:48;;;;;;;7.35;5.68;;;22.30;99.90;;;;;;7348105;32;20847;-56
2023/06/11 05:21:53;;;;;;;7.07;5.68;;;22.50;99.90;;;;;;7345620;32;20220;-56
2023/06/11 05:26:01;;;;;;;6.85;5.43;;;22.50;99.90;;;;;;7352401;32;20198;-57
2023/06/11 05:30:03;;;;;;;6.97;5.40;;;22.30;99.90;;;;;;7350206;32;20758;-57
2023/06/11 05:34:05;;;;;;;6.78;5.93;;;22.30;99.90;;;;;;7352816;32;20222;-58
2023/06/11 05:38:08;;;;;;;5.95;5.35;;;22.30;99.90;;;;;;7352384;32;20197;-57
2023/06/11 05:42:10;;;;;;;7.25;5.43;;;22.40;99.90;;;;;;7341679;32;20111;-56
2023/06/11 05:46:15;;;;;;;6.72;5.50;;;22.40;99.90;;;;;;7345995;32;20732;-58
2023/06/11 05:50:17;;;;;;;6.65;5.47;;;22.40;99.90;;;;;;7352625;32;20159;-58
2023/06/11 05:54:19;;;;;;;7.07;4.75;;;22.50;99.90;;;;;;7347443;32;20131;-59
2023/06/11 05:58:22;;;;;;;7.12;5.57;;;22.70;99.90;;;;;;7344656;32;20277;-59
2023/06/11 06:02:23;;;;;;;5.45;4.95;;;22.80;99.90;;;;;;7340434;32;20224;-58
2023/06/11 06:06:26;;;;;;;6.68;4.37;;;22.90;99.90;;;;;;7347462;32;20121;-59
2023/06/11 06:10:28;;;;;;;6.03;5.25;;;23.00;99.90;;;;;;7338632;32;20095;-58
2023/06/11 06:14:30;;;;;;;6.78;5.20;;;23.20;99.90;;;;;;7343629;32;20123;-58
2023/06/11 06:18:33;;;;;;;7.43;5.03;;;23.20;99.90;;;;;;7344780;32;20107;-57
2023/06/11 06:22:34;;;;;;;5.80;5.25;;;23.40;99.90;;;;;;7347061;32;20182;-56
2023/06/11 06:26:40;;;;;;;8.45;4.82;;;23.50;99.90;;;;;;7348808;32;20183;-57
2023/06/11 06:30:42;;;;;;;7.53;5.12;;;23.80;99.90;;;;;;7343740;32;20104;-56
2023/06/11 06:34:44;;;;;;;5.68;4.82;;;23.90;99.90;;;;;;7349207;32;20310;-57
2023/06/11 06:38:49;;;;;;;6.68;5.00;;;24.10;99.90;;;;;;7349860;32;21957;-63
2023/06/11 06:42:50;;;;;;;6.68;4.80;;;24.30;99.90;;;;;;7346457;32;20442;-62
2023/06/11 06:46:53;;;;;;;8.27;5.07;;;24.20;99.90;;;;;;7337723;32;20868;-63
2023/06/11 06:50:55;;;;;;;5.75;4.95;;;24.50;99.90;;;;;;7342246;32;20166;-63
2023/06/11 06:54:57;;;;;;;6.03;4.70;;;24.60;99.90;;;;;;7340836;32;20449;-63
2023/06/11 06:58:59;;;;;;;5.60;4.97;;;24.60;99.90;;;;;;7348871;32;20116;-64
2023/06/11 07:03:01;;;;;;;5.53;4.57;;;24.70;99.90;;;;;;7347072;32;20130;-62
2023/06/11 07:07:02;;;;;;;8.15;4.78;;;24.70;99.90;;;;;;7348815;32;20103;-59
2023/06/11 07:11:04;;;;;;;7.97;4.45;;;24.80;99.90;;;;;;7353153;32;20194;-60
2023/06/11 07:15:07;;;;;;;8.45;4.70;;;25.00;99.90;;;;;;7348201;32;20104;-60
2023/06/11 07:19:10;;;;;;;4.95;4.53;;;25.10;99.90;;;;;;7347349;32;20106;-59
2023/06/11 07:23:12;;;;;;;6.47;5.15;;;25.10;99.90;;;;;;7349144;32;20133;-59
2023/06/11 07:27:14;;;;;;;5.47;4.95;;;25.20;99.90;;;;;;7338998;32;20174;-60
2023/06/11 07:31:16;;;;;;;6.32;4.53;;;25.30;99.90;;;;;;7345416;32;20462;-60
2023/06/11 07:35:18;;;;;;;4.97;4.50;;;25.20;99.90;;;;;;7351371;32;20169;-60
2023/06/11 07:39:20;;;;;;;6.07;4.68;;;25.20;99.90;;;;;;7342427;32;20099;-60
2023/06/11 07:43:21;;;;;;;6.12;4.72;;;25.30;99.90;;;;;;7347471;32;20155;-61
2023/06/11 07:47:23;;;;;;;10.82;4.28;;;25.30;99.90;;;;;;7346417;32;20123;-59
2023/06/11 07:51:25;;;;;;;8.40;5.25;;;25.30;99.90;;;;;;7350972;32;20163;-60
2023/06/11 07:55:27;;;;;;;7.68;4.62;;;25.40;99.90;;;;;;7347443;32;20241;-59
2023/06/11 07:59:29;;;;;;;8.90;4.85;;;25.50;99.90;;;;;;7350119;32;20190;-62
2023/06/11 08:03:31;;;;;;;6.22;4.20;;;25.60;99.90;;;;;;7350003;32;20131;-59
2023/06/11 08:07:32;;;;;;;5.30;4.35;;;25.80;99.90;;;;;;7350937;32;20522;-60
2023/06/11 08:11:35;;;;;;;6.03;4.45;;;25.90;99.90;;;;;;7349518;32;20258;-61
2023/06/11 08:15:37;;;;;;;6.25;4.45;;;26.10;99.90;;;;;;7350469;32;20230;-59
2023/06/11 08:19:39;;;;;;;5.18;4.30;;;26.30;99.90;;;;;;7350756;32;20169;-60
2023/06/11 08:23:40;;;;;;;4.55;4.15;;;26.40;99.90;;;;;;7349011;32;20218;-62
2023/06/11 08:27:42;;;;;;;4.72;4.05;;;26.70;99.90;;;;;;7351604;32;20134;-59
2023/06/11 08:31:44;;;;;;;6.03;4.10;;;27.00;99.90;;;;;;7346465;32;20263;-60
2023/06/11 08:35:47;;;;;;;4.40;4.00;;;27.20;99.90;;;;;;7347870;32;20389;-60
2023/06/11 08:39:49;;;;;;;8.65;4.70;;;27.40;99.90;;;;;;7343887;32;20160;-61
2023/06/11 08:43:50;;;;;;;6.97;4.35;;;27.80;99.90;;;;;;7346757;32;20106;-60
2023/06/11 08:48:01;;;;;;;4.43;3.95;;;28.10;99.90;;;;;;7345828;32;20162;-60
2023/06/11 08:52:03;;;;;;;6.40;3.65;;;28.40;97.80;;;;;;7346345;32;20240;-59
2023/06/11 08:56:09;;;;;;;5.20;4.05;;;28.40;99.10;;;;;;7347012;32;20704;-60
2023/06/11 09:00:12;;;;;;;4.12;3.50;;;28.80;99.40;;;;;;7348159;32;20167;-60
2023/06/11 09:04:14;;;;;;;14.82;4.43;;;29.20;95.90;;;;;;7343190;32;20179;-59
2023/06/11 09:08:16;;;;;;;5.87;3.97;;;29.30;95.10;;;;;;7344304;32;20134;-58
2023/06/11 09:12:18;;;;;;;4.32;3.62;;;29.60;95.40;;;;;;7348158;32;20127;-60
2023/06/11 09:16:19;;;;;;;6.87;4.00;;;29.70;95.30;;;;;;7351974;32;20166;-61
2023/06/11 09:20:22;;;;;;;4.78;3.55;;;29.70;93.50;;;;;;7348777;32;20161;-64
2023/06/11 09:24:24;;;;;;;10.70;3.72;;;30.00;93.20;;;;;;7348441;32;20521;-58
2023/06/11 09:28:31;;;;;;;5.35;3.17;;;29.90;90.20;;;;;;7343381;32;20593;-57
2023/06/11 09:32:37;;;;;;;4.32;3.50;;;30.40;91.70;;;;;;7345681;32;20507;-58
2023/06/11 09:36:39;;;;;;;;;;;30.80;92.20;;;;;;7348203;32;20133;-57
2023/06/11 09:40:49;;;;;;;4.78;3.30;;;31.00;89.20;;;;;;7346851;32;20010;-56
2023/06/11 09:44:51;;;;;;;4.15;3.75;;;31.00;84.20;;;;;;7349136;32;20195;-56
2023/06/11 09:48:53;;;;;;;8.68;3.30;;;31.10;87.60;;;;;;7348805;32;20163;-56
2023/06/11 09:52:56;;;;;;;3.37;3.00;;;31.30;80.90;;;;;;7344045;32;20620;-58
2023/06/11 09:56:59;;;;;;;5.95;3.20;;;31.80;83.70;;;;;;7348568;32;20217;-57
2023/06/11 10:01:02;;;;;;;6.95;3.65;;;31.70;80.10;;;;;;7346855;32;20167;-58
2023/06/11 10:05:09;;;;;;;6.25;3.58;;;31.60;77.10;;;;;;7337231;32;20190;-58
2023/06/11 10:09:15;;;;;;;5.03;3.83;;;31.70;74.50;;;;;;7341903;32;20198;-58
2023/06/11 10:13:34;;;;;;;6.45;3.60;;;31.70;71.10;;;;;;7343199;32;20124;-57
2023/06/11 10:17:35;;;;;;;4.43;3.58;;;31.00;68.10;;;;;;7349692;32;20205;-56
2023/06/11 10:21:42;;;;;;;5.03;3.22;;;31.50;78.00;;;;;;7350496;32;20546;-57
2023/06/11 10:25:53;;;;;;;7.50;4.10;;;32.00;72.50;;;;;;7344310;32;20160;-57
2023/06/11 10:29:54;;;;;;;5.87;3.47;;;31.70;67.40;;;;;;7336881;32;20247;-57
2023/06/11 10:34:03;;;;;;;5.03;3.58;;;31.90;66.60;;;;;;7354280;32;20111;-57
2023/06/11 10:38:10;;;;;;;7.82;3.78;;;32.00;62.30;;;;;;7347627;32;20509;-58
2023/06/11 10:42:21;;;;;;;7.45;3.67;;;32.20;61.10;;;;;;7346041;32;20190;-57
2023/06/11 10:46:23;;;;;;;5.00;3.58;;;32.50;59.00;;;;;;7344532;32;20122;-57
2023/06/11 10:50:31;;;;;;;3.87;3.40;;;32.30;59.80;;;;;;7353893;32;20254;-57
2023/06/11 10:54:34;;;;;;;9.38;3.62;;;32.80;65.60;;;;;;7352638;32;20118;-57
2023/06/11 10:58:36;;;;;;;4.28;3.72;;;32.60;61.40;;;;;;7353059;32;20697;-57
2023/06/11 11:02:38;;;;;;;4.40;4.00;;;33.00;60.00;;;;;;7350186;32;20540;-58
2023/06/11 11:06:43;;;;;;;5.55;3.67;;;33.30;58.50;;;;;;7346247;32;20104;-59
2023/06/11 11:10:45;;;;;;;5.82;3.50;;;33.20;59.50;;;;;;7349434;32;20160;-57
2023/06/11 11:14:46;;;;;;;4.82;3.33;;;33.40;60.20;;;;;;7347498;32;20138;-58
2023/06/11 11:18:50;;;;;;;5.65;3.40;;;33.20;60.00;;;;;;7341107;32;20237;-58
2023/06/11 11:22:54;;;;;;;6.20;3.47;;;33.40;58.00;;;;;;7353379;32;20156;-57
2023/06/11 11:26:56;;;;;;;6.32;3.90;;;33.20;62.70;;;;;;7349410;32;20252;-58
2023/06/11 11:30:59;;;;;;;5.20;3.58;;;33.20;56.20;;;;;;7350290;32;20492;-58
2023/06/11 11:35:03;;;;;;;4.72;3.75;;;33.00;56.70;;;;;;7348386;32;20178;-57
2023/06/11 11:39:13;;;;;;;9.00;4.10;;;33.00;57.60;;;;;;7348165;32;20281;-59
2023/06/11 11:43:15;;;;;;;7.32;3.80;;;32.90;61.20;;;;;;7339189;32;20250;-58
2023/06/11 11:47:20;;;;;;;5.10;3.83;;;33.00;57.20;;;;;;7352357;32;20099;-57
2023/06/11 11:51:25;;;;;;;4.95;3.90;;;33.20;59.30;;;;;;7350583;32;20175;-58
2023/06/11 11:55:28;;;;;;;7.05;4.03;;;33.10;57.70;;;;;;7347214;32;20229;-60
2023/06/11 11:59:44;;;;;;;4.87;3.70;;;33.80;58.90;;;;;;7350956;32;20206;-59
2023/06/11 12:04:01;;;;;;;5.35;3.72;;;33.80;61.10;;;;;;7347245;32;20569;-58
2023/06/11 12:08:04;;;;;;;6.87;4.28;;;34.00;60.60;;;;;;7350568;32;20143;-57
2023/06/11 12:12:07;;;;;;;4.40;4.00;;;34.20;57.00;;;;;;7346879;32;20261;-58
2023/06/11 12:16:09;;;;;;;5.25;3.85;;;33.50;53.60;;;;;;7350230;32;20103;-60
2023/06/11 12:20:12;;;;;;;7.78;4.50;;;33.00;58.40;;;;;;7334232;32;20111;-58
2023/06/11 12:24:17;;;;;;;8.50;4.10;;;33.50;54.60;;;;;;7345740;32;20192;-60
2023/06/11 12:28:20;;;;;;;8.07;3.83;;;34.10;55.90;;;;;;7337994;32;20095;-60
2023/06/11 12:32:23;;;;;;;5.25;3.92;;;34.60;55.90;;;;;;7350601;32;20115;-59
2023/06/11 12:36:25;;;;;;;6.22;3.95;;;34.90;54.10;;;;;;7344710;32;20104;-58
2023/06/11 12:40:30;;;;;;;7.07;4.10;;;34.20;54.10;;;;;;7347302;32;20340;-59
2023/06/11 12:44:31;;;;;;;5.82;4.35;;;33.00;54.10;;;;;;7338997;32;20495;-58
2023/06/11 12:48:33;;;;;;;6.53;4.22;;;33.40;54.50;;;;;;7349857;32;20187;-58
2023/06/11 12:52:35;;;;;;;4.10;3.80;;;34.40;56.70;;;;;;7347022;32;20178;-58
2023/06/11 12:56:37;;;;;;;5.80;4.18;;;34.20;53.70;;;;;;7352163;32;20269;-58
2023/06/11 13:00:38;;;;;;;6.18;3.55;;;34.50;53.80;;;;;;7340896;32;22188;-58
2023/06/11 13:04:41;;;;;;;6.72;4.55;;;33.80;54.20;;;;;;7347092;32;20252;-59
2023/06/11 13:08:43;;;;;;;7.68;4.57;;;32.60;56.00;;;;;;7342066;32;20111;-57
2023/06/11 13:12:45;;;;;;;4.62;3.92;;;32.40;55.60;;;;;;7343253;32;20172;-58
2023/06/11 13:16:51;;;;;;;9.20;4.25;;;33.00;55.60;;;;;;7349095;32;20266;-58
2023/06/11 13:20:53;;;;;;;4.87;4.37;;;33.30;53.70;;;;;;7343313;32;20115;-59
2023/06/11 13:24:55;;;;;;;6.30;4.15;;;33.70;54.10;;;;;;7348685;32;20484;-57
2023/06/11 13:28:57;;;;;;;6.95;4.03;;;33.70;52.30;;;;;;7342092;32;20202;-57
2023/06/11 13:33:00;;;;;;;6.57;4.12;;;33.70;54.50;;;;;;7342757;32;20138;-58
2023/06/11 13:37:02;;;;;;;5.32;4.82;;;33.90;54.90;;;;;;7346573;32;20894;-58
2023/06/11 13:41:03;;;;;;;6.18;3.97;;;34.00;53.40;;;;;;7344629;32;20217;-57
2023/06/11 13:45:06;;;;;;;4.28;3.83;;;33.90;52.30;;;;;;7338547;32;20100;-57
2023/06/11 13:49:07;;;;;;;6.60;4.28;;;33.80;49.90;;;;;;7349093;32;20273;-58
2023/06/11 13:53:10;;;;;;;4.72;3.97;;;33.40;49.60;;;;;;7340533;32;20163;-60
2023/06/11 13:57:12;;;;;;;6.62;4.35;;;33.20;51.00;;;;;;7337982;32;20127;-59
2023/06/11 14:01:14;;;;;;;7.05;4.72;;;33.00;50.00;;;;;;7343253;32;20126;-59
2023/06/11 14:05:16;;;;;;;6.32;3.95;;;33.30;52.70;;;;;;7351235;32;20851;-59
2023/06/11 14:09:17;;;;;;;6.57;4.10;;;33.80;51.00;;;;;;7346237;32;20107;-59
2023/06/11 14:13:19;;;;;;;6.05;4.20;;;34.10;51.00;;;;;;7356190;32;20122;-60
2023/06/11 14:17:21;;;;;;;5.05;3.83;;;34.80;51.80;;;;;;7350242;32;20287;-59
2023/06/11 14:21:23;;;;;;;6.60;4.07;;;35.20;46.00;;;;;;7348034;32;20119;-59
2023/06/11 14:25:25;;;;;;;7.72;4.32;;;35.20;46.40;;;;;;7343734;32;20119;-58
2023/06/11 14:29:27;;;;;;;6.00;4.00;;;35.40;45.70;;;;;;7351731;32;20189;-59
2023/06/11 14:33:29;;;;;;;5.10;4.12;;;35.10;48.60;;;;;;7351319;32;20111;-58
2023/06/11 14:37:30;;;;;;;6.32;3.80;;;35.20;45.40;;;;;;7352489;32;20112;-59
2023/06/11 14:41:32;;;;;;;5.45;4.60;;;35.30;47.50;;;;;;7348673;32;20141;-59
2023/06/11 14:45:34;;;;;;;6.10;4.20;;;35.20;44.40;;;;;;7353687;32;20115;-58
2023/06/11 14:49:38;;;;;;;7.07;4.10;;;34.60;44.70;;;;;;7354866;32;20202;-58
2023/06/11 14:53:40;;;;;;;4.55;4.10;;;35.00;47.50;;;;;;7346167;32;20186;-59
2023/06/11 14:57:41;;;;;;;6.25;4.00;;;35.50;43.80;;;;;;7344681;32;20141;-58
2023/06/11 15:01:43;;;;;;;6.50;4.45;;;35.20;44.00;;;;;;7349769;32;20198;-59
2023/06/11 15:05:45;;;;;;;7.22;5.85;;;35.20;44.00;;;;;;7348593;32;20103;-58
2023/06/11 15:09:46;;;;;;;5.97;4.20;;;35.50;45.10;;;;;;7346505;32;20178;-58
2023/06/11 15:13:48;;;;;;;4.50;3.53;;;34.80;45.80;;;;;;7350605;32;20262;-58
2023/06/11 15:17:50;;;;;;;8.32;4.12;;;34.80;45.20;;;;;;7343942;32;20248;-59
2023/06/11 15:21:52;;;;;;;6.35;4.68;;;34.30;45.40;;;;;;7344966;32;20104;-58
2023/06/11 15:25:55;;;;;;;5.57;4.65;;;33.10;46.30;;;;;;7351070;32;20212;-58
2023/06/11 15:29:56;;;;;;;5.25;3.87;;;32.10;51.30;;;;;;7341627;32;20128;-58
2023/06/11 15:33:58;;;;;;;6.60;4.00;;;31.90;50.10;;;;;;7349816;32;20103;-58
2023/06/11 15:38:00;;;;;;;9.82;4.53;;;31.60;48.60;;;;;;7348700;32;20111;-58
2023/06/11 15:42:03;;;;;;;6.93;3.97;;;31.00;48.50;;;;;;7347413;32;20599;-58
2023/06/11 15:46:04;;;;;;;7.62;4.40;;;30.90;49.70;;;;;;7340158;32;20199;-58
2023/06/11 15:50:07;;;;;;;5.65;4.47;;;30.60;50.70;;;;;;7340542;32;20179;-57
2023/06/11 15:54:09;;;;;;;6.57;4.70;;;30.20;51.70;;;;;;7342559;32;20191;-59
2023/06/11 15:58:11;;;;;;;10.98;4.93;;;30.00;51.40;;;;;;7350098;32;20190;-59
2023/06/11 16:02:13;;;;;;;6.18;5.05;;;29.60;52.70;;;;;;7342735;32;20100;-58
2023/06/11 16:06:16;;;;;;;6.32;5.05;;;29.50;54.20;;;;;;7342698;32;20102;-57
2023/06/11 16:10:18;;;;;;;7.78;5.22;;;29.30;54.60;;;;;;7346500;32;20233;-58
2023/06/11 16:14:20;;;;;;;5.80;4.70;;;29.30;54.50;;;;;;7343604;32;20174;-58
2023/06/11 16:18:22;;;;;;;8.10;5.25;;;29.10;55.10;;;;;;7348985;32;20167;-58
2023/06/11 16:22:24;;;;;;;6.12;5.15;;;29.10;56.10;;;;;;7351485;32;20364;-58
2023/06/11 16:26:25;;;;;;;8.82;5.18;;;29.00;56.40;;;;;;7343459;32;20209;-57
2023/06/11 16:30:29;;;;;;;8.63;6.18;;;29.00;57.10;;;;;;7345256;32;20229;-58
2023/06/11 16:34:31;;;;;;;7.90;5.15;;;28.60;57.00;;;;;;7350425;32;20134;-57
2023/06/11 16:38:32;;;;;;;8.35;5.60;;;28.50;56.90;;;;;;7345182;32;20238;-57
2023/06/11 16:42:36;;;;;;;7.10;5.32;;;28.10;56.90;;;;;;7338393;32;20279;-57
2023/06/11 16:46:38;;;;;;;5.65;5.12;;;28.20;57.10;;;;;;7342497;32;20202;-57
2023/06/11 16:50:40;;;;;;;6.03;5.35;;;28.20;57.70;;;;;;7345062;32;20431;-57
2023/06/11 16:54:41;;;;;;;6.22;5.40;;;28.10;58.00;;;;;;7345578;32;20134;-59
2023/06/11 16:58:43;;;;;;;7.05;5.32;;;28.00;58.10;;;;;;7349325;32;20108;-57
2023/06/11 17:02:50;;;;;;;6.65;5.60;;;27.90;57.80;;;;;;7350067;32;20116;-57
2023/06/11 17:06:52;;;;;;;8.82;5.05;;;27.90;58.00;;;;;;7350100;32;20488;-57
2023/06/11 17:10:54;;;;;;;7.97;4.97;;;27.90;58.70;;;;;;7349567;32;20130;-58
2023/06/11 17:14:56;;;;;;;5.05;4.55;;;27.90;58.80;;;;;;7351903;32;20249;-57
2023/06/11 17:18:57;;;;;;;7.00;4.90;;;27.80;59.70;;;;;;7346529;32;20213;-57
2023/06/11 17:23:00;;;;;;;8.77;4.95;;;27.70;57.80;;;;;;7343012;32;20141;-57
2023/06/11 17:27:02;;;;;;;12.27;5.28;;;27.50;58.10;;;;;;7347050;32;20148;-57
2023/06/11 17:31:05;;;;;;;6.37;5.03;;;27.30;58.20;;;;;;7346457;32;20170;-57
2023/06/11 17:35:07;;;;;;;10.00;4.68;;;27.20;59.30;;;;;;7348363;32;20226;-57
2023/06/11 17:39:09;;;;;;;6.87;4.72;;;27.30;61.30;;;;;;7344024;32;20266;-57
2023/06/11 17:43:11;;;;;;;5.43;4.47;;;27.30;60.30;;;;;;7351328;32;20127;-58
2023/06/11 17:47:12;;;;;;;8.27;5.78;;;27.30;61.80;;;;;;7342261;32;20163;-57
2023/06/11 17:51:14;;;;;;;9.65;4.97;;;27.20;60.30;;;;;;7345079;32;20220;-57
2023/06/11 17:55:16;;;;;;;5.50;4.12;;;27.10;60.20;;;;;;7342563;32;20164;-57
2023/06/11 17:59:18;;;;;;;8.50;4.70;;;26.90;61.40;;;;;;7343923;32;20164;-57
2023/06/11 18:03:19;;;;;;;7.28;4.28;;;26.90;60.90;;;;;;7344911;32;20175;-57
2023/06/11 18:07:21;;;;;;;10.02;4.57;;;26.70;61.20;;;;;;7339229;32;20210;-57
2023/06/11 18:11:23;;;;;;;6.12;4.15;;;26.70;60.60;;;;;;7346744;32;20120;-57
2023/06/11 18:15:25;;;;;;;6.80;4.00;;;26.60;60.10;;;;;;7346422;32;20182;-57
2023/06/11 18:19:35;;;;;;;8.35;4.78;;;26.50;62.10;;;;;;7349655;32;20121;-57
2023/06/11 18:23:37;;;;;;;9.77;4.30;;;26.40;63.10;;;;;;7344620;32;20127;-57
2023/06/11 18:27:40;;;;;;;6.37;4.12;;;26.30;63.50;;;;;;7349622;32;20194;-58
2023/06/11 18:31:42;;;;;;;10.05;5.00;;;26.30;62.80;;;;;;7341080;32;20182;-57
2023/06/11 18:35:44;;;;;;;5.50;4.10;;;26.10;63.20;;;;;;7344028;32;20284;-57
2023/06/11 18:39:45;;;;;;;6.37;4.43;;;26.00;64.90;;;;;;7345160;32;20116;-57
2023/06/11 18:43:47;;;;;;;9.05;4.72;;;25.90;65.70;;;;;;7344621;32;20187;-56
2023/06/11 18:47:49;;;;;;;5.65;3.95;;;25.80;67.70;;;;;;7347017;32;20221;-57
2023/06/11 18:51:51;;;;;;;8.55;4.43;;;25.60;66.90;;;;;;7347956;32;20321;-57
2023/06/11 18:55:53;;;;;;;5.50;4.10;;;25.50;66.90;;;;;;7346537;32;20149;-57
2023/06/11 18:59:55;;;;;;;6.32;4.12;;;25.30;68.30;;;;;;7353348;32;20144;-55
2023/06/11 19:03:57;;;;;;;7.35;4.28;;;25.20;68.30;;;;;;7349390;32;20131;-57
2023/06/11 19:07:58;;;;;;;6.55;4.35;;;25.00;70.10;;;;;;7349997;32;20194;-57
2023/06/11 19:12:00;;;;;;;4.65;4.15;;;24.80;71.00;;;;;;7352680;32;20641;-57
2023/06/11 19:16:02;;;;;;;5.05;4.35;;;24.60;72.50;;;;;;7353154;32;20115;-58
2023/06/11 19:20:07;;;;;;;5.80;3.95;;;24.50;72.90;;;;;;7347064;32;20131;-56
2023/06/11 19:24:09;;;;;;;5.28;4.37;;;24.30;73.90;;;;;;7348227;32;20307;-56
2023/06/11 19:28:11;;;;;;;6.25;3.92;;;24.10;75.10;;;;;;7351020;32;20127;-57
2023/06/11 19:32:13;;;;;;;7.10;4.47;;;24.00;75.40;;;;;;7350151;32;20563;-57
2023/06/11 19:36:14;;;;;;;6.53;4.18;;;24.00;75.70;;;;;;7353626;32;20475;-57
2023/06/11 19:40:16;;;;;;;7.50;4.32;;;23.70;77.60;;;;;;7351249;32;20099;-57
2023/06/11 19:44:18;;;;;;;5.53;4.32;;;23.60;77.80;;;;;;7350680;32;20302;-57
2023/06/11 19:48:22;;;;;;;7.97;4.15;;;23.40;77.60;;;;;;7351038;32;20103;-59
2023/06/11 19:52:23;;;;;;;6.93;4.12;;;23.20;79.80;;;;;;7351790;32;20103;-57
2023/06/11 19:56:25;;;;;;;6.80;5.10;;;23.00;82.20;;;;;;7349239;32;20178;-56
2023/06/11 20:00:27;;;;;;;5.95;4.00;;;22.90;86.90;;;;;;7345810;32;20139;-56
2023/06/11 20:04:29;;;;;;;9.93;4.40;;;22.70;88.50;;;;;;7346077;32;20238;-57
2023/06/11 20:08:32;;;;;;;8.88;4.60;;;22.60;89.90;;;;;;7345081;32;20190;-57
2023/06/11 20:12:34;;;;;;;8.27;4.68;;;22.40;89.00;;;;;;7347235;32;20160;-55
2023/06/11 20:16:35;;;;;;;6.70;3.83;;;22.30;91.30;;;;;;7351217;32;20115;-56
2023/06/11 20:20:37;;;;;;;10.25;4.45;;;22.20;91.00;;;;;;7349932;32;20127;-56
2023/06/11 20:24:39;;;;;;;10.38;4.57;;;22.00;91.90;;;;;;7353546;32;20635;-56
2023/06/11 20:28:41;;;;;;;6.62;4.25;;;21.90;93.00;;;;;;7350201;32;20653;-57
2023/06/11 20:32:43;;;;;;;6.78;4.57;;;21.80;94.70;;;;;;7350293;32;20517;-56
2023/06/11 20:36:44;;;;;;;5.25;4.03;;;21.70;96.40;;;;;;7350766;32;20166;-55
2023/06/11 20:40:46;;;;;;;7.20;4.47;;;21.50;97.10;;;;;;7351378;32;20103;-56
2023/06/11 20:44:48;;;;;;;7.57;4.40;;;21.40;97.20;;;;;;7345060;32;20130;-55
2023/06/11 20:48:50;;;;;;;6.35;4.68;;;21.30;97.60;;;;;;7345740;32;20259;-55
2023/06/11 20:52:52;;;;;;;7.78;4.45;;;21.30;97.40;;;;;;7349126;32;20168;-56
2023/06/11 20:56:54;;;;;;;6.35;4.50;;;21.30;97.80;;;;;;7347089;32;20791;-56
2023/06/11 21:00:55;;;;;;;9.23;4.60;;;21.10;98.80;;;;;;7347926;32;20287;-56